createdAt,value
2018-06-28T00:00:11.978Z,17.70
2018-06-28T00:02:41.161Z,17.70
2018-06-28T00:05:11.450Z,17.60
2018-06-28T00:07:40.650Z,17.60
2018-06-28T00:10:09.954Z,17.60
2018-06-28T00:12:39.076Z,17.60
2018-06-28T00:15:08.339Z,17.50
2018-06-28T00:17:37.445Z,17.50
2018-06-28T00:20:07.078Z,17.50
2018-06-28T00:22:36.183Z,17.50
2018-06-28T00:25:05.350Z,17.40
2018-06-28T00:27:34.440Z,17.40
2018-06-28T00:30:04.235Z,17.30
2018-06-28T00:32:33.348Z,17.30
2018-06-28T00:35:02.465Z,17.20
2018-06-28T00:37:32.493Z,17.20
2018-06-28T00:40:02.398Z,17.10
2018-06-28T00:42:31.508Z,17.10
2018-06-28T00:45:00.570Z,17.10
2018-06-28T00:47:29.663Z,17.00
2018-06-28T00:49:58.763Z,17.00
2018-06-28T00:52:27.818Z,16.90
2018-06-28T00:54:57.659Z,16.90
2018-06-28T00:57:26.742Z,16.90
2018-06-28T00:59:55.790Z,16.90
2018-06-28T01:02:25.001Z,16.80
2018-06-28T01:04:54.187Z,16.90
2018-06-28T01:09:52.155Z,16.80
2018-06-28T01:12:21.227Z,16.70
2018-06-28T01:14:50.295Z,16.70
2018-06-28T01:17:20.012Z,16.70
2018-06-28T01:19:49.262Z,16.60
2018-06-28T01:22:18.347Z,16.60
2018-06-28T01:24:47.490Z,16.50
2018-06-28T01:27:16.627Z,16.50
2018-06-28T01:29:48.807Z,16.40
2018-06-28T01:32:19.194Z,16.40
2018-06-28T01:34:48.243Z,16.30
2018-06-28T01:37:17.472Z,16.30
2018-06-28T01:39:47.157Z,16.20
2018-06-28T01:42:48.811Z,16.20
2018-06-28T01:45:18.280Z,16.20
2018-06-28T01:47:47.502Z,16.10
2018-06-28T01:50:16.746Z,16.00
2018-06-28T01:52:46.066Z,16.00
2018-06-28T01:55:15.301Z,16.00
2018-06-28T01:57:45.286Z,15.90
2018-06-28T02:00:14.451Z,15.90
2018-06-28T02:02:43.947Z,15.90
2018-06-28T02:05:13.003Z,15.90
2018-06-28T02:07:42.131Z,15.80
2018-06-28T02:10:11.310Z,15.80
2018-06-28T02:12:40.330Z,15.80
2018-06-28T02:15:09.732Z,15.80
2018-06-28T02:20:07.951Z,15.80
2018-06-28T02:22:37.760Z,15.70
2018-06-28T02:25:06.948Z,15.70
2018-06-28T02:27:36.025Z,15.70
2018-06-28T02:30:05.488Z,15.70
2018-06-28T02:32:34.551Z,15.60
2018-06-28T02:35:03.846Z,15.60
2018-06-28T02:37:34.255Z,15.60
2018-06-28T02:40:03.811Z,15.50
2018-06-28T02:42:33.076Z,15.40
2018-06-28T02:45:02.909Z,15.40
2018-06-28T02:47:32.088Z,15.40
2018-06-28T02:50:02.081Z,15.40
2018-06-28T02:52:31.212Z,15.40
2018-06-28T02:55:01.472Z,15.30
2018-06-28T02:57:30.859Z,15.30
2018-06-28T03:00:00.190Z,15.20
2018-06-28T03:02:29.476Z,15.20
2018-06-28T03:04:58.935Z,15.10
2018-06-28T03:07:28.104Z,15.10
2018-06-28T03:09:57.363Z,15.00
2018-06-28T03:12:29.478Z,15.00
2018-06-28T03:14:58.870Z,15.00
2018-06-28T03:17:27.928Z,14.90
2018-06-28T03:19:57.468Z,14.80
2018-06-28T03:22:26.921Z,14.80
2018-06-28T03:24:57.032Z,14.80
2018-06-28T03:27:26.298Z,14.80
2018-06-28T03:29:55.489Z,14.80
2018-06-28T03:32:26.101Z,14.70
2018-06-28T03:34:55.144Z,14.70
2018-06-28T03:37:24.433Z,14.70
2018-06-28T03:39:53.502Z,14.70
2018-06-28T03:42:22.577Z,14.70
2018-06-28T03:44:51.775Z,14.70
2018-06-28T03:47:21.068Z,14.70
2018-06-28T03:49:50.215Z,14.70
2018-06-28T03:52:19.522Z,14.70
2018-06-28T03:54:48.570Z,14.70
2018-06-28T03:57:18.153Z,14.80
2018-06-28T03:59:47.188Z,14.80
2018-06-28T04:02:16.331Z,14.80
2018-06-28T04:04:45.600Z,14.90
2018-06-28T04:07:14.810Z,14.90
2018-06-28T04:12:12.943Z,15.00
2018-06-28T04:14:42.801Z,15.00
2018-06-28T04:17:11.872Z,15.00
2018-06-28T04:19:40.910Z,15.00
2018-06-28T04:22:11.107Z,15.10
2018-06-28T04:24:40.304Z,15.10
2018-06-28T04:27:09.487Z,15.20
2018-06-28T04:29:38.744Z,15.20
2018-06-28T04:32:07.930Z,15.20
2018-06-28T04:34:37.119Z,15.30
2018-06-28T04:37:06.212Z,15.30
2018-06-28T04:39:35.273Z,15.40
2018-06-28T04:42:04.885Z,15.50
2018-06-28T04:44:35.144Z,15.50
2018-06-28T04:47:04.361Z,15.60
2018-06-28T04:49:34.316Z,15.60
2018-06-28T04:52:03.360Z,15.70
2018-06-28T04:54:34.129Z,15.80
2018-06-28T04:57:04.074Z,15.80
2018-06-28T04:59:33.345Z,15.90
2018-06-28T05:02:02.593Z,15.90
2018-06-28T05:04:31.788Z,16.00
2018-06-28T05:07:01.011Z,16.10
2018-06-28T05:09:30.252Z,16.10
2018-06-28T05:11:59.698Z,16.20
2018-06-28T05:14:28.819Z,16.30
2018-06-28T05:16:58.011Z,16.30
2018-06-28T05:19:27.149Z,16.40
2018-06-28T05:21:56.405Z,16.50
2018-06-28T05:24:32.000Z,16.60
2018-06-28T05:27:01.197Z,16.60
2018-06-28T05:29:30.290Z,16.70
2018-06-28T05:31:59.953Z,16.80
2018-06-28T05:34:29.029Z,16.80
2018-06-28T05:36:58.204Z,16.90
2018-06-28T05:39:27.287Z,17.00
2018-06-28T05:41:56.431Z,17.10
2018-06-28T05:44:25.497Z,17.20
2018-06-28T05:46:54.719Z,17.30
2018-06-28T05:49:24.340Z,17.40
2018-06-28T05:51:53.484Z,17.50
2018-06-28T05:54:23.565Z,17.50
2018-06-28T05:56:52.663Z,17.60
2018-06-28T05:59:21.868Z,17.70
2018-06-28T06:01:51.356Z,17.80
2018-06-28T06:04:20.599Z,17.90
2018-06-28T06:06:49.761Z,18.00
2018-06-28T06:09:19.254Z,18.10
2018-06-28T06:11:48.699Z,18.20
2018-06-28T06:14:17.780Z,18.30
2018-06-28T06:16:47.731Z,18.30
2018-06-28T06:19:16.926Z,18.40
2018-06-28T06:21:46.100Z,18.40
2018-06-28T06:24:15.985Z,18.50
2018-06-28T06:26:45.165Z,18.60
2018-06-28T06:31:43.156Z,18.80
2018-06-28T06:34:12.702Z,18.90
2018-06-28T06:36:42.031Z,19.00
2018-06-28T06:39:11.972Z,19.10
2018-06-28T06:41:41.684Z,19.20
2018-06-28T06:44:10.830Z,19.30
2018-06-28T06:46:40.008Z,19.40
2018-06-28T06:49:09.453Z,19.50
2018-06-28T06:51:38.761Z,19.50
2018-06-28T06:54:08.543Z,19.60
2018-06-28T06:56:38.147Z,19.70
2018-06-28T06:59:07.595Z,19.80
2018-06-28T07:01:37.044Z,19.90
2018-06-28T07:04:06.119Z,20.10
2018-06-28T07:06:35.441Z,20.10
2018-06-28T07:09:08.844Z,20.20
2018-06-28T07:11:38.186Z,20.30
2018-06-28T07:14:08.402Z,20.40
2018-06-28T07:16:37.586Z,20.60
2018-06-28T07:19:06.806Z,20.70
2018-06-28T07:21:36.106Z,20.90
2018-06-28T07:24:05.525Z,21.00
2018-06-28T07:26:34.843Z,21.20
2018-06-28T07:29:04.337Z,21.30
2018-06-28T07:31:33.714Z,21.40
2018-06-28T07:34:02.941Z,21.50
2018-06-28T07:36:32.300Z,21.60
2018-06-28T07:39:01.504Z,21.70
2018-06-28T07:41:30.588Z,21.70
2018-06-28T07:43:59.604Z,21.70
2018-06-28T07:46:28.811Z,21.80
2018-06-28T07:48:58.095Z,21.90
2018-06-28T07:51:27.641Z,22.00
2018-06-28T07:53:56.971Z,22.20
2018-06-28T07:56:26.861Z,22.40
2018-06-28T07:58:55.971Z,22.40
2018-06-28T08:01:25.216Z,22.50
2018-06-28T08:03:54.332Z,22.60
2018-06-28T08:06:24.041Z,22.80
2018-06-28T08:08:53.215Z,22.90
2018-06-28T08:11:22.328Z,23.00
2018-06-28T08:13:51.350Z,23.00
2018-06-28T08:16:20.470Z,23.10
2018-06-28T08:18:49.790Z,23.20
2018-06-28T08:21:19.042Z,23.30
2018-06-28T08:23:48.423Z,23.40
2018-06-28T08:26:17.865Z,23.50
2018-06-28T08:28:47.091Z,23.50
2018-06-28T08:31:16.581Z,23.60
2018-06-28T08:33:45.891Z,23.70
2018-06-28T08:36:15.015Z,23.80
2018-06-28T08:38:44.202Z,23.80
2018-06-28T08:41:13.291Z,23.80
2018-06-28T08:43:42.368Z,23.90
2018-06-28T08:46:11.673Z,24.00
2018-06-28T08:48:40.848Z,24.10
2018-06-28T08:51:09.944Z,24.20
2018-06-28T08:53:42.563Z,24.30
2018-06-28T08:56:11.647Z,24.30
2018-06-28T08:58:40.836Z,24.40
2018-06-28T09:01:10.668Z,24.50
2018-06-28T09:03:40.198Z,24.50
2018-06-28T09:06:09.292Z,24.60
2018-06-28T09:08:38.359Z,24.70
2018-06-28T09:11:07.418Z,24.70
2018-06-28T09:13:36.503Z,24.80
2018-06-28T09:16:05.971Z,24.80
2018-06-28T09:18:35.092Z,24.90
2018-06-28T09:21:04.180Z,25.00
2018-06-28T09:23:33.587Z,25.10
2018-06-28T09:26:02.691Z,25.20
2018-06-28T09:28:31.853Z,25.30
2018-06-28T09:31:01.070Z,25.40
2018-06-28T09:35:59.048Z,25.50
2018-06-28T09:38:28.445Z,25.60
2018-06-28T09:40:57.478Z,25.60
2018-06-28T09:43:27.037Z,25.60
2018-06-28T09:45:56.096Z,25.60
2018-06-28T09:48:25.279Z,25.60
2018-06-28T09:50:54.680Z,25.60
2018-06-28T09:53:23.745Z,25.70
2018-06-28T09:55:52.893Z,25.80
2018-06-28T09:58:22.285Z,25.90
2018-06-28T10:00:51.520Z,25.90
2018-06-28T10:03:20.731Z,26.00
2018-06-28T10:05:49.860Z,26.10
2018-06-28T10:08:19.134Z,26.10
2018-06-28T10:10:48.291Z,26.20
2018-06-28T10:13:17.890Z,26.20
2018-06-28T10:15:46.911Z,26.30
2018-06-28T10:18:16.006Z,26.40
2018-06-28T10:20:45.294Z,26.50
2018-06-28T10:23:14.797Z,26.50
2018-06-28T10:25:43.909Z,26.50
2018-06-28T10:28:13.055Z,26.60
2018-06-28T10:30:42.299Z,26.70
2018-06-28T10:33:11.364Z,26.70
2018-06-28T10:35:41.009Z,26.70
2018-06-28T10:38:10.172Z,26.80
2018-06-28T10:40:39.418Z,26.80
2018-06-28T10:43:08.623Z,26.80
2018-06-28T10:45:37.894Z,26.90
2018-06-28T10:48:07.151Z,27.00
2018-06-28T10:50:36.389Z,27.00
2018-06-28T10:53:06.524Z,27.10
2018-06-28T10:55:36.203Z,27.10
2018-06-28T10:58:05.269Z,27.20
2018-06-28T11:00:34.530Z,27.20
2018-06-28T11:03:04.683Z,27.20
2018-06-28T11:05:33.932Z,27.30
2018-06-28T11:08:03.530Z,27.40
2018-06-28T11:10:32.692Z,27.50
2018-06-28T11:15:30.505Z,27.60
2018-06-28T11:17:59.753Z,27.70
2018-06-28T11:20:29.245Z,27.80
2018-06-28T11:22:58.371Z,27.90
2018-06-28T11:25:27.462Z,27.90
2018-06-28T11:27:56.534Z,27.90
2018-06-28T11:30:25.755Z,28.00
2018-06-28T11:32:54.790Z,28.20
2018-06-28T11:35:23.837Z,28.20
2018-06-28T11:37:53.085Z,28.10
2018-06-28T11:40:22.385Z,28.10
2018-06-28T11:42:51.943Z,28.20
2018-06-28T11:45:21.058Z,28.40
2018-06-28T11:47:50.348Z,28.80
2018-06-28T11:50:19.480Z,29.10
2018-06-28T11:52:48.619Z,29.30
2018-06-28T11:55:18.087Z,29.60
2018-06-28T11:57:47.286Z,29.80
2018-06-28T12:00:16.601Z,29.80
2018-06-28T12:02:45.713Z,29.80
2018-06-28T12:05:15.103Z,30.00
2018-06-28T12:07:44.507Z,30.10
2018-06-28T12:10:13.621Z,30.00
2018-06-28T12:12:42.698Z,30.00
2018-06-28T12:15:11.831Z,30.00
2018-06-28T12:17:41.024Z,30.00
2018-06-28T12:20:10.380Z,30.00
2018-06-28T12:22:39.553Z,30.20
2018-06-28T12:25:08.704Z,30.30
2018-06-28T12:27:38.019Z,30.50
2018-06-28T12:30:07.123Z,30.20
2018-06-28T12:32:36.978Z,29.60
2018-06-28T12:35:06.371Z,29.30
2018-06-28T12:37:35.409Z,29.40
2018-06-28T12:40:05.013Z,29.70
2018-06-28T12:42:34.199Z,30.00
2018-06-28T12:45:03.735Z,30.30
2018-06-28T12:47:48.061Z,30.50
2018-06-28T12:50:17.582Z,30.30
2018-06-28T12:52:51.911Z,29.80
2018-06-28T12:55:21.571Z,29.30
2018-06-28T12:57:51.032Z,29.00
2018-06-28T13:00:20.101Z,29.10
2018-06-28T13:02:49.273Z,29.10
2018-06-28T13:05:18.581Z,28.80
2018-06-28T13:07:54.210Z,28.60
2018-06-28T13:10:23.312Z,28.60
2018-06-28T13:12:53.142Z,28.20
2018-06-28T13:15:22.392Z,28.10
2018-06-28T13:17:52.201Z,28.30
2018-06-28T13:20:21.374Z,28.40
2018-06-28T13:22:50.665Z,28.70
2018-06-28T13:25:19.961Z,29.20
2018-06-28T13:27:50.283Z,29.40
2018-06-28T13:30:19.457Z,29.40
2018-06-28T13:32:48.677Z,29.60
2018-06-28T13:35:18.796Z,29.90
2018-06-28T13:37:48.207Z,30.40
2018-06-28T13:40:17.308Z,30.70
2018-06-28T13:42:46.435Z,30.90
2018-06-28T13:45:15.602Z,30.60
2018-06-28T13:47:45.025Z,30.40
2018-06-28T13:50:14.499Z,30.30
2018-06-28T13:52:44.392Z,30.00
2018-06-28T13:55:13.684Z,29.90
2018-06-28T13:57:42.827Z,29.70
2018-06-28T14:00:12.024Z,29.50
2018-06-28T14:02:41.206Z,29.50
2018-06-28T14:05:10.539Z,29.60
2018-06-28T14:07:39.736Z,29.80
2018-06-28T14:10:09.025Z,30.10
2018-06-28T14:12:38.099Z,30.60
2018-06-28T14:15:07.580Z,30.90
2018-06-28T14:17:37.532Z,31.10
2018-06-28T14:20:09.069Z,31.00
2018-06-28T14:22:38.341Z,31.00
2018-06-28T14:25:07.601Z,31.00
2018-06-28T14:27:36.674Z,31.30
2018-06-28T14:30:06.899Z,31.60
2018-06-28T14:32:36.198Z,31.60
2018-06-28T14:35:05.563Z,31.40
2018-06-28T14:37:34.731Z,31.30
2018-06-28T14:40:04.812Z,31.10
2018-06-28T14:42:33.883Z,30.50
2018-06-28T14:45:03.281Z,30.30
2018-06-28T14:47:32.606Z,30.10
2018-06-28T14:50:01.740Z,30.20
2018-06-28T14:52:31.033Z,31.20
2018-06-28T14:55:00.160Z,32.40
2018-06-28T14:57:30.341Z,33.50
2018-06-28T14:59:59.630Z,34.70
2018-06-28T15:02:28.813Z,34.90
2018-06-28T15:04:58.082Z,33.90
2018-06-28T15:07:27.272Z,32.70
2018-06-28T15:09:56.388Z,31.70
2018-06-28T15:12:25.462Z,31.20
2018-06-28T15:14:54.617Z,31.50
2018-06-28T15:17:23.758Z,32.20
2018-06-28T15:19:53.301Z,33.20
2018-06-28T15:22:22.550Z,34.40
2018-06-28T15:27:20.749Z,35.70
2018-06-28T15:29:49.757Z,35.30
2018-06-28T15:32:18.810Z,34.70
2018-06-28T15:34:47.919Z,34.30
2018-06-28T15:37:17.286Z,34.50
2018-06-28T15:39:46.387Z,35.00
2018-06-28T15:42:15.539Z,35.10
2018-06-28T15:44:44.629Z,35.30
2018-06-28T15:47:13.972Z,35.40
2018-06-28T15:49:43.101Z,35.30
2018-06-28T15:52:12.268Z,35.20
2018-06-28T15:54:41.591Z,34.60
2018-06-28T15:57:10.858Z,33.80
2018-06-28T15:59:40.087Z,34.00
2018-06-28T16:02:09.327Z,34.70
2018-06-28T16:04:38.508Z,35.50
2018-06-28T16:07:07.600Z,35.90
2018-06-28T16:09:36.843Z,35.80
2018-06-28T16:12:06.159Z,35.70
2018-06-28T16:14:35.328Z,36.00
2018-06-28T16:17:04.714Z,36.40
2018-06-28T16:19:34.665Z,35.80
2018-06-28T16:22:03.755Z,35.00
2018-06-28T16:24:33.192Z,34.20
2018-06-28T16:27:02.508Z,33.50
2018-06-28T16:29:31.649Z,33.50
2018-06-28T16:32:00.902Z,34.00
2018-06-28T16:34:30.041Z,34.60
2018-06-28T16:36:59.131Z,34.70
2018-06-28T16:39:28.878Z,34.10
2018-06-28T16:41:58.093Z,34.00
2018-06-28T16:46:56.173Z,34.70
2018-06-28T16:49:25.525Z,35.40
2018-06-28T16:51:54.596Z,36.00
2018-06-28T16:54:23.884Z,36.30
2018-06-28T16:56:53.010Z,37.00
2018-06-28T16:59:22.050Z,37.40
2018-06-28T17:01:51.100Z,37.30
2018-06-28T17:04:20.192Z,37.10
2018-06-28T17:06:49.237Z,36.70
2018-06-28T17:09:18.416Z,36.80
2018-06-28T17:11:47.725Z,36.60
2018-06-28T17:14:16.778Z,35.90
2018-06-28T17:16:45.966Z,35.50
2018-06-28T17:19:15.177Z,35.60
2018-06-28T17:21:44.271Z,36.00
2018-06-28T17:24:13.671Z,36.60
2018-06-28T17:26:42.867Z,36.80
2018-06-28T17:29:12.055Z,36.90
2018-06-28T17:31:41.266Z,37.10
2018-06-28T17:34:10.566Z,37.10
2018-06-28T17:36:39.582Z,36.90
2018-06-28T17:39:09.351Z,36.80
2018-06-28T17:41:38.470Z,36.60
2018-06-28T17:44:07.676Z,36.80
2018-06-28T17:46:36.829Z,36.90
2018-06-28T17:49:06.178Z,37.00
2018-06-28T17:51:35.301Z,37.00
2018-06-28T17:54:04.568Z,37.10
2018-06-28T17:56:33.763Z,37.00
2018-06-28T17:59:02.936Z,37.10
2018-06-28T18:01:31.996Z,37.00
2018-06-28T18:04:01.263Z,36.70
2018-06-28T18:06:30.489Z,36.00
2018-06-28T18:08:59.698Z,35.60
2018-06-28T18:11:28.850Z,34.80
2018-06-28T18:13:58.016Z,33.60
2018-06-28T18:16:27.889Z,32.30
2018-06-28T18:18:57.204Z,31.20
2018-06-28T18:21:26.410Z,30.50
2018-06-28T18:23:56.199Z,29.80
2018-06-28T18:26:25.429Z,29.40
2018-06-28T18:28:54.932Z,29.00
2018-06-28T18:31:24.128Z,28.70
2018-06-28T18:33:53.228Z,28.50
2018-06-28T18:36:22.426Z,28.30
2018-06-28T18:38:51.691Z,28.10
2018-06-28T18:41:21.004Z,27.90
2018-06-28T18:43:50.127Z,27.70
2018-06-28T18:46:19.182Z,27.60
2018-06-28T18:48:48.323Z,27.50
2018-06-28T18:53:46.280Z,27.30
2018-06-28T18:56:15.364Z,27.20
2018-06-28T18:58:44.997Z,27.10
2018-06-28T19:01:14.300Z,27.00
2018-06-28T19:03:43.622Z,26.90
2018-06-28T19:08:41.408Z,26.80
2018-06-28T19:11:10.464Z,26.70
2018-06-28T19:13:44.754Z,26.60
2018-06-28T19:16:19.196Z,26.50
2018-06-28T19:18:48.465Z,26.40
2018-06-28T19:21:22.836Z,26.30
2018-06-28T19:23:52.786Z,26.20
2018-06-28T19:26:21.875Z,26.10
2018-06-28T19:28:51.200Z,26.00
2018-06-28T19:31:25.829Z,25.90
2018-06-28T19:33:55.070Z,25.80
2018-06-28T19:36:24.300Z,25.70
2018-06-28T19:38:59.430Z,25.60
2018-06-28T19:41:33.970Z,25.60
2018-06-28T19:44:03.197Z,25.40
2018-06-28T19:46:33.122Z,25.30
2018-06-28T19:49:06.542Z,25.20
2018-06-28T19:51:41.062Z,25.10
2018-06-28T19:54:10.551Z,25.10
2018-06-28T19:56:39.557Z,25.00
2018-06-28T19:59:08.674Z,24.90
2018-06-28T20:01:43.147Z,24.80
2018-06-28T20:04:13.830Z,24.70
2018-06-28T20:06:44.363Z,24.60
2018-06-28T20:09:13.570Z,24.50
2018-06-28T20:11:42.935Z,24.40
2018-06-28T20:14:17.339Z,24.40
2018-06-28T20:16:51.811Z,24.30
2018-06-28T20:19:26.315Z,24.30
2018-06-28T20:21:55.390Z,24.20
2018-06-28T20:24:24.742Z,24.00
2018-06-28T20:26:59.166Z,24.00
2018-06-28T20:32:08.411Z,23.80
2018-06-28T20:37:06.125Z,23.60
2018-06-28T20:39:35.331Z,23.40
2018-06-28T20:42:04.394Z,23.40
2018-06-28T20:44:33.591Z,23.30
2018-06-28T20:47:02.846Z,23.20
2018-06-28T20:49:32.208Z,23.10
2018-06-28T20:52:01.328Z,23.00
2018-06-28T20:54:30.506Z,23.00
2018-06-28T20:56:59.617Z,23.00
2018-06-28T20:59:28.807Z,22.90
2018-06-28T21:01:58.286Z,22.80
2018-06-28T21:04:27.763Z,22.70
2018-06-28T21:06:57.372Z,22.70
2018-06-28T21:11:55.220Z,22.50
2018-06-28T21:14:24.246Z,22.50
2018-06-28T21:16:53.415Z,22.40
2018-06-28T21:19:22.728Z,22.40
2018-06-28T21:21:51.876Z,22.30
2018-06-28T21:24:20.941Z,22.20
2018-06-28T21:26:50.149Z,22.10
2018-06-28T21:29:19.611Z,22.10
2018-06-28T21:31:48.788Z,22.10
2018-06-28T21:34:17.948Z,22.10
2018-06-28T21:36:47.163Z,22.00
2018-06-28T21:39:16.626Z,22.00
2018-06-28T21:44:14.394Z,22.00
2018-06-28T21:46:43.402Z,21.90
2018-06-28T21:49:12.571Z,21.80
2018-06-28T21:51:41.649Z,21.80
2018-06-28T21:54:10.908Z,21.70
2018-06-28T21:56:40.313Z,21.70
2018-06-28T21:59:09.439Z,21.70
2018-06-28T22:01:42.961Z,21.60
2018-06-28T22:04:12.093Z,21.60
2018-06-28T22:06:41.360Z,21.50
2018-06-28T22:09:10.528Z,21.50
2018-06-28T22:11:39.747Z,21.40
2018-06-28T22:14:09.067Z,21.40
2018-06-28T22:16:38.159Z,21.30
2018-06-28T22:19:07.319Z,21.30
2018-06-28T22:21:36.738Z,21.20
2018-06-28T22:24:06.385Z,21.20
2018-06-28T22:26:35.560Z,21.10
2018-06-28T22:29:05.070Z,21.10
2018-06-28T22:31:34.981Z,21.00
2018-06-28T22:34:04.049Z,21.00
2018-06-28T22:36:33.275Z,20.90
2018-06-28T22:39:02.636Z,20.90
2018-06-28T22:41:31.690Z,20.80
2018-06-28T22:44:00.914Z,20.80
2018-06-28T22:46:29.950Z,20.80
2018-06-28T22:48:59.078Z,20.80
2018-06-28T22:51:28.459Z,20.70
2018-06-28T22:53:57.789Z,20.70
2018-06-28T22:56:27.308Z,20.70
2018-06-28T22:58:56.442Z,20.60
2018-06-28T23:01:25.619Z,20.60
2018-06-28T23:03:54.673Z,20.60
2018-06-28T23:06:24.942Z,20.50
2018-06-28T23:08:54.198Z,20.50
2018-06-28T23:11:23.439Z,20.50
2018-06-28T23:13:52.550Z,20.40
2018-06-28T23:16:21.651Z,20.40
2018-06-28T23:18:50.669Z,20.30
2018-06-28T23:21:19.726Z,20.30
2018-06-28T23:23:48.867Z,20.20
2018-06-28T23:26:18.807Z,20.20
2018-06-28T23:28:48.050Z,20.10
2018-06-28T23:31:17.303Z,20.10
2018-06-28T23:33:46.454Z,20.00
2018-06-28T23:36:15.816Z,20.00
2018-06-28T23:38:44.865Z,19.90
2018-06-28T23:41:14.006Z,19.90
2018-06-28T23:43:43.020Z,19.90
2018-06-28T23:46:13.201Z,19.80
2018-06-28T23:48:42.179Z,19.80
2018-06-28T23:51:11.535Z,19.70
2018-06-28T23:53:40.554Z,19.80
2018-06-28T23:56:09.616Z,19.80
2018-06-28T23:58:38.903Z,19.80
